Terminal Aerodrome Forecast
Issued by NWS Des Moines, IA

Home | Current Version | Previous Version | Text Only | Print | Product List | Glossary On
Versions: 1 2 3 4 5 6 7 8 9 10 11 12 13 14 15 16 17 18 19 20 21 22
000
FTUS43 KDMX 012325
TAFDSM
TAF
KDSM 012325Z 0200/0224 02011KT 6SM BR VCSH SCT012 BKN020 OVC030
     FM020200 35007KT 6SM BR SCT025 OVC035
     FM021000 35005KT 5SM BR FEW010 SCT080
     FM021700 01008KT P6SM BKN050=

USA.gov is the U.S. government's official web portal to all federal, state and local government web resources and services.